createdAt,value
2018-11-07T00:00:16.691Z,14.40
2018-11-07T00:02:45.673Z,14.50
2018-11-07T00:05:15.859Z,14.40
2018-11-07T00:07:45.201Z,14.50
2018-11-07T00:10:14.164Z,14.40
2018-11-07T00:12:43.020Z,14.30
2018-11-07T00:15:13.474Z,14.40
2018-11-07T00:17:42.472Z,14.40
2018-11-07T00:20:12.080Z,14.40
2018-11-07T00:22:40.923Z,14.40
2018-11-07T00:25:11.096Z,14.40
2018-11-07T00:27:40.375Z,14.50
2018-11-07T00:30:10.291Z,14.50
2018-11-07T00:32:39.758Z,14.20
2018-11-07T00:35:09.791Z,14.20
2018-11-07T00:37:39.147Z,14.30
2018-11-07T00:40:08.048Z,14.30
2018-11-07T00:42:36.907Z,14.30
2018-11-07T00:45:08.707Z,14.30
2018-11-07T00:47:37.600Z,14.40
2018-11-07T00:50:13.196Z,14.30
2018-11-07T00:52:42.615Z,14.30
2018-11-07T00:55:12.203Z,14.40
2018-11-07T00:57:41.220Z,14.50
2018-11-07T01:00:21.585Z,14.40
2018-11-07T01:02:53.304Z,14.40
2018-11-07T01:05:22.302Z,14.40
2018-11-07T01:07:51.158Z,14.50
2018-11-07T01:10:20.040Z,14.40
2018-11-07T01:12:48.926Z,14.40
2018-11-07T01:15:17.886Z,14.40
2018-11-07T01:17:46.743Z,14.50
2018-11-07T01:20:15.598Z,14.50
2018-11-07T01:22:45.338Z,14.50
2018-11-07T01:25:14.259Z,14.50
2018-11-07T01:27:43.146Z,14.50
2018-11-07T01:30:13.368Z,14.40
2018-11-07T01:32:42.319Z,14.30
2018-11-07T01:35:11.259Z,14.30
2018-11-07T01:37:40.139Z,14.30
2018-11-07T01:40:11.792Z,14.40
2018-11-07T01:42:40.884Z,14.40
2018-11-07T01:45:10.827Z,14.40
2018-11-07T01:47:39.767Z,14.40
2018-11-07T01:50:11.157Z,14.40
2018-11-07T01:52:40.368Z,14.30
2018-11-07T01:55:09.879Z,14.20
2018-11-07T01:57:38.782Z,14.30
2018-11-07T02:00:12.498Z,14.30
2018-11-07T02:02:42.971Z,14.30
2018-11-07T02:05:12.652Z,14.30
2018-11-07T02:07:42.000Z,14.30
2018-11-07T02:10:10.987Z,14.30
2018-11-07T02:12:40.703Z,14.30
2018-11-07T02:15:10.094Z,14.40
2018-11-07T02:17:39.204Z,14.30
2018-11-07T02:20:09.815Z,14.40
2018-11-07T02:22:38.740Z,14.30
2018-11-07T02:25:07.786Z,14.40
2018-11-07T02:27:36.827Z,14.30
2018-11-07T02:30:08.783Z,14.30
2018-11-07T02:32:37.684Z,14.40
2018-11-07T02:35:06.735Z,14.30
2018-11-07T02:37:35.583Z,14.30
2018-11-07T02:40:04.967Z,14.20
2018-11-07T02:42:33.799Z,14.10
2018-11-07T02:45:04.185Z,14.20
2018-11-07T02:47:33.099Z,14.30
2018-11-07T02:50:01.995Z,14.30
2018-11-07T02:52:30.860Z,14.40
2018-11-07T02:54:59.803Z,14.30
2018-11-07T02:57:28.682Z,14.30
2018-11-07T02:59:57.595Z,14.40
2018-11-07T03:02:26.475Z,14.30
2018-11-07T03:04:55.430Z,14.30
2018-11-07T03:07:24.311Z,14.30
2018-11-07T03:09:53.244Z,14.20
2018-11-07T03:12:22.123Z,14.10
2018-11-07T03:14:51.027Z,14.10
2018-11-07T03:17:19.879Z,14.10
2018-11-07T03:19:48.808Z,14.20
2018-11-07T03:22:17.679Z,14.20
2018-11-07T03:24:46.608Z,14.20
2018-11-07T03:27:15.492Z,14.10
2018-11-07T03:29:44.364Z,14.00
2018-11-07T03:32:13.220Z,14.00
2018-11-07T03:34:42.181Z,14.10
2018-11-07T03:37:11.092Z,14.10
2018-11-07T03:39:40.033Z,14.00
2018-11-07T03:42:08.823Z,14.10
2018-11-07T03:44:37.735Z,14.20
2018-11-07T03:47:06.776Z,14.00
2018-11-07T03:49:35.828Z,14.10
2018-11-07T03:52:04.692Z,14.10
2018-11-07T03:54:33.596Z,14.20
2018-11-07T03:57:02.448Z,14.20
2018-11-07T03:59:31.315Z,14.30
2018-11-07T04:02:01.064Z,14.10
2018-11-07T04:04:29.967Z,14.10
2018-11-07T04:06:59.552Z,14.10
2018-11-07T04:09:28.424Z,14.20
2018-11-07T04:11:57.330Z,14.10
2018-11-07T04:14:28.301Z,14.20
2018-11-07T04:16:57.175Z,14.20
2018-11-07T04:19:26.059Z,14.20
2018-11-07T04:21:54.951Z,14.20
2018-11-07T04:24:23.874Z,14.20
2018-11-07T04:26:52.735Z,14.10
2018-11-07T04:29:21.604Z,14.00
2018-11-07T04:31:50.461Z,13.90
2018-11-07T04:34:19.324Z,13.80
2018-11-07T04:36:48.184Z,13.70
2018-11-07T04:39:17.063Z,13.80
2018-11-07T04:41:45.927Z,13.90
2018-11-07T04:44:14.799Z,14.00
2018-11-07T04:46:43.652Z,14.00
2018-11-07T04:49:12.518Z,14.00
2018-11-07T04:51:41.444Z,13.90
2018-11-07T04:54:10.704Z,13.80
2018-11-07T04:56:39.653Z,13.80
2018-11-07T04:59:11.226Z,13.90
2018-11-07T05:01:41.840Z,13.80
2018-11-07T05:04:10.695Z,13.80
2018-11-07T05:06:39.618Z,13.90
2018-11-07T05:09:09.131Z,13.90
2018-11-07T05:11:38.388Z,13.70
2018-11-07T05:14:07.303Z,13.70
2018-11-07T05:16:36.270Z,13.80
2018-11-07T05:19:05.258Z,13.80
2018-11-07T05:21:34.514Z,13.80
2018-11-07T05:24:03.451Z,13.90
2018-11-07T05:26:33.129Z,13.90
2018-11-07T05:29:02.124Z,13.90
2018-11-07T05:31:30.978Z,13.90
2018-11-07T05:33:59.876Z,13.90
2018-11-07T05:36:28.784Z,13.90
2018-11-07T05:38:57.707Z,13.90
2018-11-07T05:41:26.530Z,14.00
2018-11-07T05:43:55.355Z,14.00
2018-11-07T05:46:24.280Z,13.90
2018-11-07T05:48:53.178Z,13.90
2018-11-07T05:51:21.995Z,13.90
2018-11-07T05:53:50.803Z,14.00
2018-11-07T05:56:19.667Z,14.00
2018-11-07T05:58:48.503Z,14.00
2018-11-07T06:01:17.394Z,14.10
2018-11-07T06:03:46.207Z,14.10
2018-11-07T06:06:15.127Z,14.10
2018-11-07T06:08:43.949Z,14.10
2018-11-07T06:11:12.809Z,14.20
2018-11-07T06:13:41.631Z,14.10
2018-11-07T06:16:10.777Z,14.10
2018-11-07T06:18:39.615Z,14.10
2018-11-07T06:21:08.426Z,14.10
2018-11-07T06:23:37.269Z,14.10
2018-11-07T06:26:06.139Z,13.90
2018-11-07T06:28:34.973Z,13.80
2018-11-07T06:31:04.157Z,13.80
2018-11-07T06:33:32.978Z,13.80
2018-11-07T06:36:01.927Z,13.80
2018-11-07T06:38:30.787Z,13.80
2018-11-07T06:40:59.594Z,13.90
2018-11-07T06:43:28.418Z,13.90
2018-11-07T06:45:57.272Z,13.90
2018-11-07T06:48:26.175Z,13.80
2018-11-07T06:50:55.003Z,13.80
2018-11-07T06:53:23.831Z,13.80
2018-11-07T06:55:52.773Z,13.80
2018-11-07T06:58:21.590Z,13.80
2018-11-07T07:00:50.399Z,13.80
2018-11-07T07:03:19.190Z,13.70
2018-11-07T07:05:48.075Z,13.70
2018-11-07T07:08:16.899Z,13.70
2018-11-07T07:10:45.711Z,13.80
2018-11-07T07:13:14.547Z,13.80
2018-11-07T07:15:43.419Z,13.80
2018-11-07T07:18:12.312Z,13.90
2018-11-07T07:20:41.075Z,13.80
2018-11-07T07:23:09.911Z,13.70
2018-11-07T07:25:38.970Z,13.80
2018-11-07T07:28:07.759Z,13.80
2018-11-07T07:30:36.631Z,13.90
2018-11-07T07:33:06.550Z,13.80
2018-11-07T07:35:35.379Z,13.80
2018-11-07T07:38:04.624Z,13.80
2018-11-07T07:40:33.491Z,13.70
2018-11-07T07:43:02.308Z,13.70
2018-11-07T07:45:31.245Z,13.70
2018-11-07T07:48:00.031Z,13.70
2018-11-07T07:50:28.855Z,13.80
2018-11-07T07:52:57.735Z,13.80
2018-11-07T07:55:26.632Z,13.80
2018-11-07T07:57:55.463Z,13.80
2018-11-07T08:00:30.830Z,13.80
2018-11-07T08:02:59.662Z,13.70
2018-11-07T08:05:28.551Z,13.70
2018-11-07T08:07:57.355Z,13.80
2018-11-07T08:10:26.155Z,13.70
2018-11-07T08:12:54.985Z,13.60
2018-11-07T08:15:23.870Z,13.70
2018-11-07T08:17:52.719Z,13.80
2018-11-07T08:20:21.537Z,13.80
2018-11-07T08:22:50.371Z,13.90
2018-11-07T08:25:19.251Z,14.10
2018-11-07T08:27:48.094Z,13.90
2018-11-07T08:30:18.387Z,13.90
2018-11-07T08:32:47.239Z,13.90
2018-11-07T08:35:16.384Z,13.80
2018-11-07T08:37:45.979Z,13.80
2018-11-07T08:40:19.927Z,13.80
2018-11-07T08:42:49.089Z,13.90
2018-11-07T08:45:18.006Z,14.00
2018-11-07T08:47:47.488Z,14.00
2018-11-07T08:50:17.612Z,14.20
2018-11-07T08:52:47.011Z,14.30
2018-11-07T08:55:17.332Z,14.30
2018-11-07T08:57:46.157Z,14.20
2018-11-07T09:00:18.019Z,14.10
2018-11-07T09:02:48.766Z,14.20
2018-11-07T09:05:18.679Z,14.30
2018-11-07T09:07:47.923Z,14.30
2018-11-07T09:10:17.976Z,14.30
2018-11-07T09:12:46.823Z,14.30
2018-11-07T09:15:16.948Z,14.30
2018-11-07T09:17:45.831Z,14.20
2018-11-07T09:20:16.680Z,14.20
2018-11-07T09:22:45.560Z,14.30
2018-11-07T09:25:15.179Z,14.40
2018-11-07T09:27:44.804Z,14.50
2018-11-07T09:30:22.880Z,14.50
2018-11-07T09:32:51.777Z,14.50
2018-11-07T09:35:21.071Z,14.50
2018-11-07T09:37:49.985Z,14.60
2018-11-07T09:40:19.883Z,14.50
2018-11-07T09:42:49.086Z,14.40
2018-11-07T09:45:19.222Z,14.40
2018-11-07T09:47:48.291Z,14.30
2018-11-07T09:50:17.696Z,14.40
2018-11-07T09:52:46.699Z,14.50
2018-11-07T09:55:16.936Z,14.60
2018-11-07T09:57:45.744Z,14.60
2018-11-07T10:00:19.841Z,14.60
2018-11-07T10:02:51.478Z,14.70
2018-11-07T10:05:20.810Z,14.70
2018-11-07T10:07:49.702Z,14.70
2018-11-07T10:10:19.807Z,14.70
2018-11-07T10:12:48.879Z,14.70
2018-11-07T10:15:18.080Z,14.70
2018-11-07T10:17:46.923Z,14.60
2018-11-07T10:20:18.986Z,14.60
2018-11-07T10:22:48.244Z,14.60
2018-11-07T10:25:17.228Z,14.70
2018-11-07T10:27:46.525Z,14.60
2018-11-07T10:30:16.557Z,14.60
2018-11-07T10:32:46.271Z,14.60
2018-11-07T10:35:15.223Z,14.70
2018-11-07T10:37:44.111Z,14.70
2018-11-07T10:40:23.986Z,14.70
2018-11-07T10:42:52.914Z,14.70
2018-11-07T10:45:21.872Z,14.70
2018-11-07T10:47:51.090Z,14.60
2018-11-07T10:50:20.695Z,14.70
2018-11-07T10:52:49.975Z,14.70
2018-11-07T10:55:18.951Z,14.80
2018-11-07T10:57:47.808Z,14.80
2018-11-07T11:00:26.646Z,14.70
2018-11-07T11:03:07.080Z,14.80
2018-11-07T11:05:37.687Z,14.80
2018-11-07T11:08:06.858Z,14.70
2018-11-07T11:10:35.959Z,14.70
2018-11-07T11:13:05.114Z,14.70
2018-11-07T11:15:34.019Z,14.70
2018-11-07T11:18:02.892Z,14.70
2018-11-07T11:20:31.735Z,14.70
2018-11-07T11:23:00.559Z,14.80
2018-11-07T11:25:30.420Z,14.80
2018-11-07T11:27:59.268Z,14.80
2018-11-07T11:30:28.087Z,14.80
2018-11-07T11:32:56.917Z,14.80
2018-11-07T11:35:25.789Z,15.00
2018-11-07T11:37:54.620Z,14.90
2018-11-07T11:40:23.435Z,14.90
2018-11-07T11:42:52.275Z,14.80
2018-11-07T11:45:21.150Z,14.80
2018-11-07T11:47:50.014Z,14.80
2018-11-07T11:50:19.895Z,14.70
2018-11-07T11:52:49.256Z,14.70
2018-11-07T11:55:18.147Z,14.80
2018-11-07T11:57:47.185Z,14.80
2018-11-07T12:00:19.553Z,14.90
2018-11-07T12:02:48.745Z,14.90
2018-11-07T12:05:18.329Z,15.00
2018-11-07T12:07:47.222Z,15.00
2018-11-07T12:10:21.358Z,15.10
2018-11-07T12:12:52.543Z,15.00
2018-11-07T12:15:23.085Z,15.00
2018-11-07T12:17:52.289Z,15.00
2018-11-07T12:20:21.147Z,15.00
2018-11-07T12:22:50.079Z,15.10
2018-11-07T12:25:20.834Z,15.20
2018-11-07T12:27:49.721Z,15.30
2018-11-07T12:30:20.852Z,15.30
2018-11-07T12:32:50.753Z,15.30
2018-11-07T12:35:20.171Z,15.30
2018-11-07T12:37:49.026Z,15.20
2018-11-07T12:40:18.351Z,15.20
2018-11-07T12:42:47.232Z,15.20
2018-11-07T12:45:16.748Z,15.20
2018-11-07T12:47:45.620Z,15.20
2018-11-07T12:50:16.430Z,15.20
2018-11-07T12:52:45.790Z,15.10
2018-11-07T12:55:14.983Z,15.00
2018-11-07T12:57:43.856Z,14.90
2018-11-07T13:00:25.130Z,14.90
2018-11-07T13:02:56.999Z,14.90
2018-11-07T13:05:26.419Z,15.00
2018-11-07T13:07:56.443Z,15.10
2018-11-07T13:10:25.302Z,15.20
2018-11-07T13:12:54.415Z,15.20
2018-11-07T13:15:23.324Z,15.20
2018-11-07T13:17:55.771Z,15.10
2018-11-07T13:20:25.388Z,15.10
2018-11-07T13:22:54.791Z,15.10
2018-11-07T13:25:24.519Z,15.20
2018-11-07T13:27:53.388Z,15.20
2018-11-07T13:30:22.711Z,15.10
2018-11-07T13:32:51.520Z,15.20
2018-11-07T13:35:20.742Z,15.10
2018-11-07T13:37:50.405Z,15.00
2018-11-07T13:40:20.452Z,15.00
2018-11-07T13:42:49.301Z,15.10
2018-11-07T13:45:20.399Z,15.10
2018-11-07T13:47:50.471Z,15.10
2018-11-07T13:50:19.755Z,15.00
2018-11-07T13:52:48.645Z,15.00
2018-11-07T13:55:17.564Z,15.10
2018-11-07T13:57:46.651Z,15.10
2018-11-07T14:00:20.391Z,15.20
2018-11-07T14:02:49.858Z,15.10
2018-11-07T14:05:18.807Z,15.00
2018-11-07T14:07:47.655Z,15.10
2018-11-07T14:10:23.923Z,15.00
2018-11-07T14:12:53.237Z,15.20
2018-11-07T14:15:22.262Z,15.20
2018-11-07T14:17:51.477Z,15.20
2018-11-07T14:20:20.367Z,15.20
2018-11-07T14:22:49.195Z,15.20
2018-11-07T14:25:18.151Z,15.20
2018-11-07T14:27:47.171Z,15.10
2018-11-07T14:30:17.481Z,15.10
2018-11-07T14:32:57.212Z,15.00
2018-11-07T14:35:26.192Z,15.10
2018-11-07T14:37:55.783Z,15.10
2018-11-07T14:40:24.635Z,14.90
2018-11-07T14:42:53.452Z,14.80
2018-11-07T14:45:22.387Z,14.70
2018-11-07T14:47:51.341Z,14.70
2018-11-07T14:50:20.088Z,14.70
2018-11-07T14:52:48.919Z,14.70
2018-11-07T14:55:17.803Z,14.70
2018-11-07T14:57:46.662Z,14.80
2018-11-07T15:00:17.683Z,14.80
2018-11-07T15:02:46.855Z,14.70
2018-11-07T15:05:17.317Z,14.80
2018-11-07T15:07:46.135Z,14.80
2018-11-07T15:10:15.793Z,14.80
2018-11-07T15:12:44.630Z,14.80
2018-11-07T15:15:14.710Z,14.80
2018-11-07T15:17:43.518Z,14.80
2018-11-07T15:20:13.399Z,14.70
2018-11-07T15:22:42.323Z,14.60
2018-11-07T15:25:12.536Z,14.70
2018-11-07T15:27:42.643Z,14.70
2018-11-07T15:30:12.679Z,14.50
2018-11-07T15:32:42.171Z,14.60
2018-11-07T15:35:11.632Z,14.60
2018-11-07T15:37:40.672Z,14.60
2018-11-07T15:40:12.119Z,14.50
2018-11-07T15:42:41.326Z,14.50
2018-11-07T15:45:12.943Z,14.40
2018-11-07T15:47:42.023Z,14.40
2018-11-07T15:50:16.551Z,14.40
2018-11-07T15:52:46.337Z,14.40
2018-11-07T15:55:15.239Z,14.40
2018-11-07T15:57:44.298Z,14.30
2018-11-07T16:00:15.638Z,14.30
2018-11-07T16:02:45.408Z,14.20
2018-11-07T16:05:15.047Z,14.20
2018-11-07T16:07:43.976Z,14.20
2018-11-07T16:10:14.086Z,14.10
2018-11-07T16:12:43.069Z,14.00
2018-11-07T16:15:14.866Z,14.00
2018-11-07T16:17:43.954Z,13.80
2018-11-07T16:20:14.235Z,13.80
2018-11-07T16:22:44.853Z,13.90
2018-11-07T16:25:13.823Z,13.80
2018-11-07T16:27:43.259Z,13.80
2018-11-07T16:30:13.821Z,13.80
2018-11-07T16:32:44.486Z,13.80
2018-11-07T16:35:14.247Z,13.70
2018-11-07T16:37:43.729Z,13.60
2018-11-07T16:40:15.103Z,13.60
2018-11-07T16:42:44.308Z,13.50
2018-11-07T16:45:14.131Z,13.60
2018-11-07T16:47:43.229Z,13.60
2018-11-07T16:50:13.231Z,13.60
2018-11-07T16:52:42.705Z,13.60
2018-11-07T16:55:11.567Z,13.60
2018-11-07T16:57:40.418Z,13.50
2018-11-07T17:00:16.621Z,13.50
2018-11-07T17:02:46.788Z,13.40
2018-11-07T17:05:18.372Z,13.40
2018-11-07T17:07:47.626Z,13.50
2018-11-07T17:10:16.718Z,13.50
2018-11-07T17:12:45.576Z,13.50
2018-11-07T17:15:14.490Z,13.30
2018-11-07T17:17:43.327Z,13.30
2018-11-07T17:20:13.743Z,13.40
2018-11-07T17:22:42.808Z,13.40
2018-11-07T17:25:14.722Z,13.40
2018-11-07T17:27:43.683Z,13.40
2018-11-07T17:30:13.587Z,13.40
2018-11-07T17:32:42.487Z,13.50
2018-11-07T17:35:12.815Z,13.50
2018-11-07T17:37:41.983Z,13.60
2018-11-07T17:40:14.047Z,13.50
2018-11-07T17:42:43.267Z,13.50
2018-11-07T17:45:14.743Z,13.30
2018-11-07T17:47:43.862Z,13.20
2018-11-07T17:50:14.043Z,13.20
2018-11-07T17:52:43.107Z,13.10
2018-11-07T17:55:13.235Z,13.00
2018-11-07T17:57:42.140Z,13.10
2018-11-07T18:00:23.525Z,13.20
2018-11-07T18:02:55.253Z,13.10
2018-11-07T18:05:24.174Z,13.20
2018-11-07T18:07:53.082Z,13.30
2018-11-07T18:10:21.933Z,13.30
2018-11-07T18:12:50.776Z,13.20
2018-11-07T18:15:19.715Z,13.00
2018-11-07T18:17:48.600Z,13.20
2018-11-07T18:20:17.867Z,13.10
2018-11-07T18:22:46.676Z,13.20
2018-11-07T18:25:16.427Z,13.20
2018-11-07T18:27:45.271Z,13.10
2018-11-07T18:30:15.352Z,13.00
2018-11-07T18:32:45.056Z,12.90
2018-11-07T18:35:15.710Z,12.90
2018-11-07T18:37:44.919Z,12.90
2018-11-07T18:40:15.228Z,12.80
2018-11-07T18:42:44.225Z,12.90
2018-11-07T18:45:13.907Z,13.00
2018-11-07T18:47:44.119Z,12.80
2018-11-07T18:50:14.547Z,12.80
2018-11-07T18:52:43.637Z,12.80
2018-11-07T18:55:13.769Z,12.80
2018-11-07T18:57:43.475Z,12.90
2018-11-07T19:00:18.002Z,12.90
2018-11-07T19:02:47.539Z,12.80
2018-11-07T19:05:16.536Z,12.70
2018-11-07T19:07:45.455Z,12.80
2018-11-07T19:10:16.416Z,12.90
2018-11-07T19:12:46.152Z,12.80
2018-11-07T19:15:15.525Z,12.80
2018-11-07T19:17:45.251Z,12.80
2018-11-07T19:20:14.855Z,12.80
2018-11-07T19:22:43.731Z,12.70
2018-11-07T19:25:13.971Z,12.70
2018-11-07T19:27:42.811Z,12.60
2018-11-07T19:30:14.131Z,12.60
2018-11-07T19:32:43.925Z,12.60
2018-11-07T19:35:13.734Z,12.50
2018-11-07T19:37:43.259Z,12.40
2018-11-07T19:40:13.492Z,12.40
2018-11-07T19:42:42.407Z,12.60
2018-11-07T19:45:13.108Z,12.70
2018-11-07T19:47:41.965Z,12.60
2018-11-07T19:50:12.315Z,12.50
2018-11-07T19:52:41.291Z,12.50
2018-11-07T19:55:13.576Z,12.60
2018-11-07T19:57:44.313Z,12.60
2018-11-07T20:00:16.871Z,12.60
2018-11-07T20:02:46.173Z,12.50
2018-11-07T20:05:15.254Z,12.50
2018-11-07T20:07:44.235Z,12.60
2018-11-07T20:10:16.082Z,12.60
2018-11-07T20:12:45.924Z,12.60
2018-11-07T20:15:16.468Z,12.50
2018-11-07T20:17:46.927Z,12.40
2018-11-07T20:20:16.518Z,12.30
2018-11-07T20:22:45.802Z,12.10
2018-11-07T20:25:15.211Z,12.10
2018-11-07T20:27:44.508Z,12.00
2018-11-07T20:30:14.679Z,11.90
2018-11-07T20:32:43.548Z,12.10
2018-11-07T20:35:14.227Z,12.30
2018-11-07T20:37:43.151Z,12.50
2018-11-07T20:40:13.679Z,12.50
2018-11-07T20:42:42.600Z,12.60
2018-11-07T20:45:12.298Z,12.60
2018-11-07T20:47:41.474Z,12.70
2018-11-07T20:50:13.159Z,12.80
2018-11-07T20:52:42.611Z,12.80
2018-11-07T20:55:12.688Z,12.80
2018-11-07T20:57:41.636Z,12.60
2018-11-07T21:00:27.707Z,12.60
2018-11-07T21:02:58.477Z,12.50
2018-11-07T21:05:27.776Z,12.60
2018-11-07T21:07:56.908Z,12.70
2018-11-07T21:10:25.794Z,12.60
2018-11-07T21:12:55.200Z,12.60
2018-11-07T21:15:24.413Z,12.80
2018-11-07T21:17:53.364Z,12.90
2018-11-07T21:20:22.205Z,12.80
2018-11-07T21:22:51.043Z,12.80
2018-11-07T21:25:19.887Z,12.70
2018-11-07T21:27:49.439Z,12.80
2018-11-07T21:30:18.287Z,12.80
2018-11-07T21:32:47.114Z,12.80
2018-11-07T21:35:16.172Z,12.90
2018-11-07T21:37:45.076Z,13.00
2018-11-07T21:40:15.615Z,13.10
2018-11-07T21:42:45.332Z,13.00
2018-11-07T21:45:15.550Z,12.90
2018-11-07T21:47:44.543Z,12.80
2018-11-07T21:50:15.460Z,12.80
2018-11-07T21:52:44.372Z,12.80
2018-11-07T21:55:13.228Z,12.90
2018-11-07T21:57:42.078Z,13.10
2018-11-07T22:00:19.036Z,13.10
2018-11-07T22:02:47.914Z,13.20
2018-11-07T22:05:17.310Z,13.30
2018-11-07T22:07:46.183Z,13.30
2018-11-07T22:10:16.319Z,13.20
2018-11-07T22:12:46.328Z,13.00
2018-11-07T22:15:15.213Z,13.10
2018-11-07T22:17:44.066Z,13.20
2018-11-07T22:20:17.856Z,13.30
2018-11-07T22:22:46.734Z,13.30
2018-11-07T22:25:15.763Z,13.30
2018-11-07T22:27:44.595Z,13.20
2018-11-07T22:30:14.838Z,13.10
2018-11-07T22:32:43.774Z,13.10
2018-11-07T22:35:14.067Z,13.20
2018-11-07T22:37:43.652Z,13.20
2018-11-07T22:40:13.861Z,13.20
2018-11-07T22:42:43.071Z,13.10
2018-11-07T22:45:12.416Z,13.20
2018-11-07T22:47:41.267Z,13.20
2018-11-07T22:50:11.884Z,13.10
2018-11-07T22:52:41.808Z,13.10
2018-11-07T22:55:10.805Z,13.10
2018-11-07T22:57:39.653Z,13.20
2018-11-07T23:00:23.095Z,13.20
2018-11-07T23:02:55.180Z,13.20
2018-11-07T23:05:24.065Z,13.20
2018-11-07T23:07:52.885Z,13.20
2018-11-07T23:10:21.780Z,13.10
2018-11-07T23:12:50.744Z,12.90
2018-11-07T23:15:25.188Z,13.00
2018-11-07T23:17:54.021Z,13.10
2018-11-07T23:20:23.184Z,13.20
2018-11-07T23:22:51.987Z,13.20
2018-11-07T23:25:20.929Z,13.20
2018-11-07T23:27:49.772Z,13.20
2018-11-07T23:30:18.612Z,13.20
2018-11-07T23:32:47.483Z,13.10
2018-11-07T23:35:16.372Z,13.10
2018-11-07T23:37:45.243Z,13.10
2018-11-07T23:40:14.101Z,13.00
2018-11-07T23:42:42.958Z,13.00
2018-11-07T23:45:23.795Z,13.00
2018-11-07T23:47:52.735Z,13.00
2018-11-07T23:50:21.618Z,12.90
2018-11-07T23:52:51.514Z,13.00
2018-11-07T23:55:21.658Z,13.10
2018-11-07T23:57:51.246Z,13.00
